TimeCST,TemperatureF,Dew PointF,Humidity,Sea Level PressureIn,VisibilityMPH,Wind Direction,Wind SpeedMPH,Gust SpeedMPH,PrecipitationIn,Events,Conditions,WindDirDegrees,DateUTC
12:15 AM,35.6,21.2,56,30.04,10.0,Calm,Calm,-,N/A,,Partly Cloudy,0,2012-11-25 06:15:00
12:35 AM,35.6,21.2,56,30.03,10.0,Calm,Calm,-,N/A,,Partly Cloudy,0,2012-11-25 06:35:00
12:55 AM,35.6,19.4,52,30.03,10.0,Calm,Calm,-,N/A,,Clear,0,2012-11-25 06:55:00
1:15 AM,32.0,23.0,69,30.03,10.0,Calm,Calm,-,N/A,,Clear,0,2012-11-25 07:15:00
1:35 AM,35.6,21.2,56,30.02,10.0,Calm,Calm,-,N/A,,Clear,0,2012-11-25 07:35:00
1:55 AM,39.2,19.4,45,30.01,10.0,Calm,Calm,-,N/A,,Clear,0,2012-11-25 07:55:00
2:15 AM,39.2,19.4,45,30.01,10.0,Calm,Calm,-,N/A,,Clear,0,2012-11-25 08:15:00
2:35 AM,37.4,23.0,56,30.02,10.0,Calm,Calm,-,N/A,,Clear,0,2012-11-25 08:35:00
2:55 AM,39.2,19.4,45,30.00,10.0,Calm,Calm,-,N/A,,Clear,0,2012-11-25 08:55:00
3:15 AM,39.2,19.4,45,30.00,10.0,Calm,Calm,-,N/A,,Clear,0,2012-11-25 09:15:00
3:35 AM,39.2,19.4,45,30.00,10.0,Calm,Calm,-,N/A,,Clear,0,2012-11-25 09:35:00
3:55 AM,37.4,21.2,52,30.00,10.0,Calm,Calm,-,N/A,,Clear,0,2012-11-25 09:55:00
4:15 AM,35.6,21.2,56,30.00,10.0,Calm,Calm,-,N/A,,Clear,0,2012-11-25 10:15:00
4:35 AM,33.8,24.8,70,29.99,10.0,Calm,Calm,-,N/A,,Clear,0,2012-11-25 10:35:00
4:55 AM,33.8,23.0,65,29.99,10.0,Calm,Calm,-,N/A,,Clear,0,2012-11-25 10:55:00
5:35 AM,37.4,19.4,48,29.98,10.0,Calm,Calm,-,N/A,,Partly Cloudy,0,2012-11-25 11:35:00
6:55 AM,35.6,19.4,52,29.98,10.0,Calm,Calm,-,N/A,,Partly Cloudy,0,2012-11-25 12:55:00
7:45 AM,42.8,21.2,42,29.98,10.0,Calm,Calm,-,N/A,,Clear,0,2012-11-25 13:45:00
8:45 AM,50.0,19.4,30,29.98,10.0,SW,5.8,-,N/A,,Clear,220,2012-11-25 14:45:00
9:45 AM,55.4,23.0,29,29.98,10.0,SW,6.9,-,N/A,,Partly Cloudy,230,2012-11-25 15:45:00
10:51 AM,60.8,28.4,29,29.97,10.0,SW,9.2,19.6,N/A,,Clear,230,2012-11-25 16:51:00
11:47 AM,62.6,32.0,32,29.95,10.0,West,9.2,-,N/A,,Partly Cloudy,260,2012-11-25 17:47:00
12:45 PM,64.4,33.8,32,29.92,10.0,West,8.1,-,N/A,,Partly Cloudy,260,2012-11-25 18:45:00
1:45 PM,66.2,35.6,32,29.90,10.0,WSW,9.2,-,N/A,,Partly Cloudy,240,2012-11-25 19:45:00
2:45 PM,66.2,35.6,32,29.88,10.0,South,5.8,-,N/A,,Clear,190,2012-11-25 20:45:00
3:55 PM,64.4,35.6,34,29.88,10.0,SSW,6.9,-,N/A,,Clear,210,2012-11-25 21:55:00
4:55 PM,60.8,35.6,39,29.88,10.0,South,5.8,-,N/A,,Clear,190,2012-11-25 22:55:00
5:50 PM,53.6,37.4,54,29.90,10.0,SSE,4.6,-,N/A,,Clear,160,2012-11-25 23:50:00
6:45 PM,55.4,33.8,44,29.91,10.0,South,4.6,-,N/A,,Clear,170,2012-11-26 00:45:00
7:50 PM,50.0,32.0,50,29.93,10.0,South,4.6,-,N/A,,Clear,180,2012-11-26 01:50:00
8:15 PM,50.0,32.0,50,29.94,10.0,South,4.6,-,N/A,,Clear,170,2012-11-26 02:15:00
8:35 PM,50.0,32.0,50,29.95,10.0,South,5.8,-,N/A,,Clear,170,2012-11-26 02:35:00
8:45 PM,50.0,32.0,50,29.95,10.0,South,4.6,-,N/A,,Clear,170,2012-11-26 02:45:00
8:55 PM,51.8,32.0,47,29.95,10.0,South,4.6,-,N/A,,Clear,180,2012-11-26 02:55:00
9:15 PM,50.0,32.0,50,29.95,10.0,SSE,5.8,-,N/A,,Clear,160,2012-11-26 03:15:00
9:35 PM,50.0,32.0,50,29.96,10.0,South,6.9,-,N/A,,Clear,170,2012-11-26 03:35:00
9:55 PM,50.0,32.0,50,29.96,10.0,South,5.8,-,N/A,,Clear,170,2012-11-26 03:55:00
10:15 PM,50.0,32.0,50,29.95,10.0,SSE,5.8,-,N/A,,Clear,160,2012-11-26 04:15:00
10:35 PM,50.0,32.0,50,29.95,10.0,South,5.8,-,N/A,,Clear,170,2012-11-26 04:35:00
10:55 PM,50.0,32.0,50,29.96,10.0,South,5.8,-,N/A,,Clear,170,2012-11-26 04:55:00
11:15 PM,50.0,33.8,54,29.96,10.0,South,5.8,-,N/A,,Clear,170,2012-11-26 05:15:00
11:35 PM,50.0,35.6,58,29.96,10.0,SSE,3.5,-,N/A,,Clear,160,2012-11-26 05:35:00
11:55 PM,48.2,35.6,62,29.97,10.0,SSE,4.6,-,N/A,,Clear,160,2012-11-26 05:55:00